createdAt,value
2019-03-11T00:02:06.142Z,96135.27
2019-03-11T00:04:32.605Z,96129.19
2019-03-11T00:06:59.036Z,96126.72
2019-03-11T00:09:25.574Z,96128.48
2019-03-11T00:11:52.134Z,96120.30
2019-03-11T00:14:18.602Z,96116.45
2019-03-11T00:16:45.183Z,96116.05
2019-03-11T00:19:11.719Z,96114.97
2019-03-11T00:21:38.149Z,96114.49
2019-03-11T00:24:04.583Z,96109.56
2019-03-11T00:26:31.119Z,96111.79
2019-03-11T00:28:57.555Z,96111.79
2019-03-11T00:31:23.986Z,96109.40
2019-03-11T00:33:50.420Z,96106.37
2019-03-11T00:36:16.955Z,96111.97
2019-03-11T00:38:43.389Z,96122.27
2019-03-11T00:41:09.926Z,96128.48
2019-03-11T00:43:36.358Z,96133.15
2019-03-11T00:46:02.997Z,96141.80
2019-03-11T00:48:29.431Z,96139.69
2019-03-11T00:50:55.864Z,96144.17
2019-03-11T00:53:22.298Z,96153.52
2019-03-11T00:55:48.834Z,96160.06
2019-03-11T00:58:15.311Z,96159.44
2019-03-11T01:00:41.909Z,96164.72
2019-03-11T01:03:08.342Z,96160.65
2019-03-11T01:05:35.936Z,96159.48
2019-03-11T01:08:03.496Z,96166.60
2019-03-11T01:10:31.356Z,96162.98
2019-03-11T01:12:59.483Z,96164.99
2019-03-11T01:15:26.139Z,96162.48
2019-03-11T01:17:52.573Z,96169.83
2019-03-11T01:20:19.313Z,96160.69
2019-03-11T01:22:45.746Z,96166.25
2019-03-11T01:25:13.306Z,96163.23
2019-03-11T01:27:39.845Z,96169.52
2019-03-11T01:30:09.484Z,96158.81
2019-03-11T01:32:35.986Z,96154.24
2019-03-11T01:35:04.247Z,96158.19
2019-03-11T01:37:30.696Z,96159.08
2019-03-11T01:39:57.232Z,96164.05
2019-03-11T01:42:23.666Z,96164.05
2019-03-11T01:44:50.229Z,96170.09
2019-03-11T01:47:16.737Z,96170.37
2019-03-11T01:49:43.172Z,96169.88
2019-03-11T01:52:09.707Z,96173.31
2019-03-11T01:54:36.243Z,96180.11
2019-03-11T01:57:02.678Z,96177.20
2019-03-11T01:59:29.131Z,96179.13
2019-03-11T02:01:55.652Z,96177.70
2019-03-11T02:04:22.183Z,96175.92
2019-03-11T02:06:48.622Z,96177.67
2019-03-11T02:09:15.459Z,96177.48
2019-03-11T02:11:42.100Z,96170.05
2019-03-11T02:14:08.641Z,96173.91
2019-03-11T02:16:35.170Z,96173.31
2019-03-11T02:19:01.603Z,96170.84
2019-03-11T02:21:28.345Z,96169.16
2019-03-11T02:23:54.781Z,96165.36
2019-03-11T02:26:21.315Z,96163.52
2019-03-11T02:28:47.751Z,96163.91
2019-03-11T02:31:14.186Z,96160.28
2019-03-11T02:33:40.620Z,96159.37
2019-03-11T02:36:07.152Z,96156.12
2019-03-11T02:38:33.588Z,96159.42
2019-03-11T02:41:00.020Z,96162.02
2019-03-11T02:43:26.465Z,96167.01
2019-03-11T02:45:52.992Z,96161.31
2019-03-11T02:48:19.422Z,96156.12
2019-03-11T02:50:45.857Z,96157.28
2019-03-11T02:53:12.292Z,96154.23
2019-03-11T02:55:38.832Z,96154.52
2019-03-11T02:58:05.266Z,96160.17
2019-03-11T03:00:31.697Z,96155.29
2019-03-11T03:03:03.044Z,96166.94
2019-03-11T03:05:31.318Z,96166.77
2019-03-11T03:07:57.753Z,96169.10
2019-03-11T03:10:24.390Z,96174.92
2019-03-11T03:12:51.064Z,96170.86
2019-03-11T03:15:17.667Z,96170.91
2019-03-11T03:17:44.207Z,96166.86
2019-03-11T03:20:12.688Z,96177.14
2019-03-11T03:22:39.442Z,96174.20
2019-03-11T03:25:08.115Z,96181.59
2019-03-11T03:27:34.863Z,96180.11
2019-03-11T03:30:01.343Z,96180.55
2019-03-11T03:32:27.959Z,96184.13
2019-03-11T03:34:54.561Z,96191.17
2019-03-11T03:37:20.995Z,96191.31
2019-03-11T03:39:47.427Z,96196.78
2019-03-11T03:42:14.054Z,96191.63
2019-03-11T03:44:44.185Z,96190.64
2019-03-11T03:47:10.728Z,96190.12
2019-03-11T03:49:37.156Z,96198.02
2019-03-11T03:52:03.586Z,96197.20
2019-03-11T03:54:30.127Z,96197.67
2019-03-11T03:56:56.557Z,96208.31
2019-03-11T03:59:22.991Z,96202.88
2019-03-11T04:01:49.426Z,96202.25
2019-03-11T04:04:15.865Z,96198.66
2019-03-11T04:06:42.395Z,96200.38
2019-03-11T04:09:08.932Z,96196.43
2019-03-11T04:11:35.567Z,96201.95
2019-03-11T04:14:02.103Z,96200.47
2019-03-11T04:16:28.951Z,96197.19
2019-03-11T04:18:55.501Z,96196.20
2019-03-11T04:21:22.332Z,96194.02
2019-03-11T04:23:48.869Z,96191.09
2019-03-11T04:26:15.708Z,96201.50
2019-03-11T04:28:42.169Z,96202.67
2019-03-11T04:31:08.678Z,96201.53
2019-03-11T04:33:35.210Z,96193.95
2019-03-11T04:36:01.951Z,96189.08
2019-03-11T04:38:28.486Z,96180.19
2019-03-11T04:40:54.921Z,96166.91
2019-03-11T04:43:21.354Z,96167.23
2019-03-11T04:45:47.992Z,96171.14
2019-03-11T04:48:17.703Z,96163.66
2019-03-11T04:50:44.136Z,96169.17
2019-03-11T04:53:10.569Z,96169.03
2019-03-11T04:55:37.106Z,96161.77
2019-03-11T04:58:03.640Z,96154.96
2019-03-11T05:00:31.305Z,96150.41
2019-03-11T05:02:57.747Z,96154.81
2019-03-11T05:05:24.272Z,96160.17
2019-03-11T05:07:50.708Z,96169.53
2019-03-11T05:10:17.349Z,96174.08
2019-03-11T05:12:43.986Z,96179.56
2019-03-11T05:15:12.157Z,96188.47
2019-03-11T05:17:38.592Z,96192.52
2019-03-11T05:20:11.175Z,96201.58
2019-03-11T05:22:37.705Z,96206.91
2019-03-11T05:25:05.881Z,96210.30
2019-03-11T05:27:32.314Z,96200.63
2019-03-11T05:29:58.767Z,96209.34
2019-03-11T05:32:25.182Z,96206.06
2019-03-11T05:34:51.719Z,96203.17
2019-03-11T05:37:18.151Z,96208.34
2019-03-11T05:39:44.583Z,96204.45
2019-03-11T05:42:11.017Z,96204.14
2019-03-11T05:44:37.553Z,96189.72
2019-03-11T05:47:03.987Z,96176.92
2019-03-11T05:49:30.419Z,96183.75
2019-03-11T05:51:56.959Z,96174.89
2019-03-11T05:54:23.389Z,96185.05
2019-03-11T05:56:49.825Z,96193.02
2019-03-11T05:59:16.255Z,96189.63
2019-03-11T06:01:42.688Z,96189.72
2019-03-11T06:04:09.210Z,96186.38
2019-03-11T06:06:35.760Z,96198.68
2019-03-11T06:09:02.501Z,96202.23
2019-03-11T06:11:29.140Z,96197.66
2019-03-11T06:13:55.676Z,96196.39
2019-03-11T06:16:22.216Z,96192.20
2019-03-11T06:18:49.670Z,96174.55
2019-03-11T06:21:17.950Z,96173.41
2019-03-11T06:23:44.483Z,96182.44
2019-03-11T06:26:11.121Z,96193.42
2019-03-11T06:28:37.555Z,96200.23
2019-03-11T06:31:04.294Z,96210.27
2019-03-11T06:33:30.731Z,96206.11
2019-03-11T06:35:57.265Z,96216.40
2019-03-11T06:38:23.700Z,96217.70
2019-03-11T06:40:50.131Z,96214.79
2019-03-11T06:43:16.570Z,96221.30
2019-03-11T06:45:43.100Z,96215.44
2019-03-11T06:48:09.558Z,96214.18
2019-03-11T06:50:36.074Z,96215.47
2019-03-11T06:53:02.503Z,96217.23
2019-03-11T06:55:29.043Z,96221.61
2019-03-11T06:57:55.474Z,96220.16
2019-03-11T07:00:21.909Z,96232.31
2019-03-11T07:02:48.342Z,96223.56
2019-03-11T07:05:20.463Z,96225.84
2019-03-11T07:07:43.357Z,96223.89
2019-03-11T07:10:12.478Z,96236.19
2019-03-11T07:12:39.194Z,96236.86
2019-03-11T07:15:10.648Z,96236.20
2019-03-11T07:17:37.182Z,96230.84
2019-03-11T07:20:07.205Z,96222.84
2019-03-11T07:22:33.735Z,96234.46
2019-03-11T07:25:00.383Z,96247.84
2019-03-11T07:27:27.796Z,96239.66
2019-03-11T07:29:54.369Z,96244.75
2019-03-11T07:32:20.801Z,96252.86
2019-03-11T07:34:47.337Z,96248.68
2019-03-11T07:37:13.896Z,96240.88
2019-03-11T07:39:40.408Z,96239.22
2019-03-11T07:42:06.842Z,96251.04
2019-03-11T07:44:33.275Z,96253.67
2019-03-11T07:46:59.709Z,96246.39
2019-03-11T07:49:26.141Z,96245.77
2019-03-11T07:51:52.576Z,96247.73
2019-03-11T07:54:19.009Z,96246.38
2019-03-11T07:56:45.544Z,96236.46
2019-03-11T07:59:11.965Z,96231.88
2019-03-11T08:01:38.413Z,96230.94
2019-03-11T08:04:04.849Z,96233.05
2019-03-11T08:06:31.383Z,96231.31
2019-03-11T08:08:57.817Z,96228.25
2019-03-11T08:11:24.249Z,96215.23
2019-03-11T08:13:51.297Z,96212.16
2019-03-11T08:16:17.936Z,96218.62
2019-03-11T08:18:44.368Z,96217.30
2019-03-11T08:21:10.803Z,96220.04
2019-03-11T08:23:37.237Z,96228.11
2019-03-11T08:26:03.773Z,96221.02
2019-03-11T08:28:30.411Z,96218.02
2019-03-11T08:30:56.846Z,96219.98
2019-03-11T08:33:23.281Z,96218.05
2019-03-11T08:35:49.816Z,96215.14
2019-03-11T08:38:16.353Z,96211.59
2019-03-11T08:40:43.134Z,96211.86
2019-03-11T08:43:09.830Z,96222.81
2019-03-11T08:45:36.366Z,96209.72
2019-03-11T08:48:02.904Z,96208.95
2019-03-11T08:50:29.335Z,96220.42
2019-03-11T08:52:55.769Z,96210.05
2019-03-11T08:55:22.304Z,96205.21
2019-03-11T08:57:48.742Z,96204.74
2019-03-11T09:00:20.731Z,96212.14
2019-03-11T09:02:47.238Z,96213.98
2019-03-11T09:05:16.421Z,96221.66
2019-03-11T09:07:42.871Z,96214.39
2019-03-11T09:10:15.270Z,96213.41
2019-03-11T09:12:42.192Z,96194.95
2019-03-11T09:15:11.168Z,96206.22
2019-03-11T09:17:37.618Z,96214.03
2019-03-11T09:20:07.036Z,96211.77
2019-03-11T09:22:33.568Z,96218.36
2019-03-11T09:25:00.341Z,96221.62
2019-03-11T09:27:26.831Z,96219.02
2019-03-11T09:29:53.571Z,96222.77
2019-03-11T09:32:20.108Z,96220.16
2019-03-11T09:34:46.643Z,96219.52
2019-03-11T09:37:13.076Z,96218.91
2019-03-11T09:39:39.511Z,96195.98
2019-03-11T09:42:05.943Z,96191.02
2019-03-11T09:44:32.585Z,96188.03
2019-03-11T09:46:59.120Z,96194.81
2019-03-11T09:49:25.554Z,96200.48
2019-03-11T09:51:51.988Z,96211.86
2019-03-11T09:54:18.524Z,96207.61
2019-03-11T09:56:45.058Z,96216.70
2019-03-11T09:59:11.490Z,96205.84
2019-03-11T10:01:37.925Z,96213.17
2019-03-11T10:04:04.564Z,96214.36
2019-03-11T10:06:31.098Z,96229.39
2019-03-11T10:08:57.856Z,96216.14
2019-03-11T10:11:24.275Z,96226.48
2019-03-11T10:13:50.870Z,96232.80
2019-03-11T10:16:17.550Z,96239.61
2019-03-11T10:18:43.984Z,96242.69
2019-03-11T10:21:10.417Z,96252.38
2019-03-11T10:23:37.055Z,96257.25
2019-03-11T10:26:03.592Z,96245.59
2019-03-11T10:28:30.640Z,96244.29
2019-03-11T10:30:57.379Z,96244.28
2019-03-11T10:33:23.815Z,96230.06
2019-03-11T10:35:50.349Z,96237.17
2019-03-11T10:38:16.783Z,96234.08
2019-03-11T10:40:43.220Z,96221.94
2019-03-11T10:43:09.651Z,96215.01
2019-03-11T10:45:36.188Z,96205.70
2019-03-11T10:48:02.722Z,96200.09
2019-03-11T10:50:29.208Z,96200.88
2019-03-11T10:52:55.697Z,96196.75
2019-03-11T10:55:26.535Z,96183.77
2019-03-11T10:57:52.987Z,96169.83
2019-03-11T11:00:24.824Z,96161.67
2019-03-11T11:02:51.358Z,96152.94
2019-03-11T11:05:18.305Z,96148.73
2019-03-11T11:07:44.848Z,96155.98
2019-03-11T11:10:14.069Z,96168.47
2019-03-11T11:12:40.678Z,96168.53
2019-03-11T11:15:16.119Z,96157.75
2019-03-11T11:17:42.560Z,96157.52
2019-03-11T11:20:11.678Z,96162.27
2019-03-11T11:22:38.499Z,96159.56
2019-03-11T11:25:08.937Z,96160.89
2019-03-11T11:27:36.625Z,96169.36
2019-03-11T11:30:06.686Z,96186.33
2019-03-11T11:32:33.239Z,96207.22
2019-03-11T11:34:59.777Z,96237.16
2019-03-11T11:37:26.311Z,96259.99
2019-03-11T11:39:52.744Z,96297.06
2019-03-11T11:42:19.181Z,96296.42
2019-03-11T11:44:45.715Z,96285.96
2019-03-11T11:47:12.148Z,96247.38
2019-03-11T11:49:38.581Z,96272.09
2019-03-11T11:52:05.022Z,96288.50
2019-03-11T11:54:31.554Z,96275.31
2019-03-11T11:56:57.987Z,96285.06
2019-03-11T11:59:24.421Z,96299.38
2019-03-11T12:02:03.243Z,96276.05
2019-03-11T12:04:22.713Z,96266.34
2019-03-11T12:06:49.205Z,96256.35
2019-03-11T12:09:15.682Z,96261.63
2019-03-11T12:11:42.115Z,96272.16
2019-03-11T12:14:08.752Z,96275.73
2019-03-11T12:16:35.390Z,96264.45
2019-03-11T12:19:01.839Z,96250.53
2019-03-11T12:21:28.369Z,96245.80
2019-03-11T12:23:54.794Z,96234.94
2019-03-11T12:26:21.330Z,96222.40
2019-03-11T12:28:47.867Z,96221.14
2019-03-11T12:31:14.401Z,96215.44
2019-03-11T12:33:40.938Z,96244.54
2019-03-11T12:36:07.578Z,96241.18
2019-03-11T12:38:34.113Z,96236.22
2019-03-11T12:41:00.547Z,96242.67
2019-03-11T12:43:26.982Z,96248.94
2019-03-11T12:45:54.549Z,96241.61
2019-03-11T12:48:21.082Z,96242.70
2019-03-11T12:50:47.513Z,96241.72
2019-03-11T12:53:14.046Z,96269.22
2019-03-11T12:55:40.587Z,96259.39
2019-03-11T12:58:07.014Z,96258.27
2019-03-11T13:00:33.756Z,96261.94
2019-03-11T13:03:00.312Z,96256.90
2019-03-11T13:05:26.827Z,96270.19
2019-03-11T13:07:53.260Z,96269.21
2019-03-11T13:10:24.820Z,96269.87
2019-03-11T13:12:51.453Z,96264.98
2019-03-11T13:15:18.300Z,96271.63
2019-03-11T13:17:45.036Z,96287.16
2019-03-11T13:20:15.160Z,96293.50
2019-03-11T13:22:41.589Z,96300.59
2019-03-11T13:25:08.432Z,96305.15
2019-03-11T13:27:34.867Z,96298.66
2019-03-11T13:30:01.299Z,96303.11
2019-03-11T13:32:27.733Z,96308.95
2019-03-11T13:34:54.375Z,96298.20
2019-03-11T13:37:20.907Z,96311.14
2019-03-11T13:39:47.345Z,96305.88
2019-03-11T13:42:13.876Z,96320.51
2019-03-11T13:44:40.411Z,96323.99
2019-03-11T13:47:06.848Z,96327.55
2019-03-11T13:49:33.280Z,96324.05
2019-03-11T13:51:59.713Z,96334.28
2019-03-11T13:54:26.146Z,96345.89
2019-03-11T13:56:52.579Z,96345.91
2019-03-11T13:59:19.014Z,96341.20
2019-03-11T14:01:46.573Z,96342.05
2019-03-11T14:04:13.006Z,96338.92
2019-03-11T14:06:39.545Z,96342.64
2019-03-11T14:09:06.173Z,96340.87
2019-03-11T14:11:32.614Z,96348.31
2019-03-11T14:13:59.150Z,96354.08
2019-03-11T14:16:25.689Z,96347.12
2019-03-11T14:18:52.222Z,96337.50
2019-03-11T14:21:25.778Z,96331.01
2019-03-11T14:23:47.035Z,96324.61
2019-03-11T14:26:13.571Z,96328.13
2019-03-11T14:28:40.005Z,96324.89
2019-03-11T14:31:06.540Z,96323.94
2019-03-11T14:33:33.196Z,96335.29
2019-03-11T14:35:59.715Z,96322.92
2019-03-11T14:38:26.205Z,96321.66
2019-03-11T14:40:52.684Z,96339.84
2019-03-11T14:43:19.221Z,96323.62
2019-03-11T14:45:45.761Z,96325.89
2019-03-11T14:48:12.292Z,96337.86
2019-03-11T14:50:38.725Z,96337.24
2019-03-11T14:53:05.255Z,96324.55
2019-03-11T14:55:31.797Z,96346.87
2019-03-11T14:58:00.846Z,96355.65
2019-03-11T15:00:26.611Z,96342.83
2019-03-11T15:02:53.061Z,96346.83
2019-03-11T15:05:20.507Z,96330.05
2019-03-11T15:07:47.245Z,96351.38
2019-03-11T15:10:15.210Z,96352.83
2019-03-11T15:12:41.644Z,96353.23
2019-03-11T15:15:10.846Z,96365.64
2019-03-11T15:17:37.482Z,96374.14
2019-03-11T15:20:05.654Z,96364.05
2019-03-11T15:22:32.090Z,96375.48
2019-03-11T15:24:58.627Z,96355.61
2019-03-11T15:27:25.061Z,96350.11
2019-03-11T15:29:51.492Z,96355.94
2019-03-11T15:32:18.131Z,96346.27
2019-03-11T15:34:44.878Z,96359.50
2019-03-11T15:37:11.614Z,96346.28
2019-03-11T15:39:38.046Z,96341.43
2019-03-11T15:42:04.581Z,96349.95
2019-03-11T15:44:31.116Z,96345.02
2019-03-11T15:46:59.395Z,96340.16
2019-03-11T15:49:25.828Z,96335.23
2019-03-11T15:51:52.261Z,96337.53
2019-03-11T15:54:18.694Z,96335.61
2019-03-11T15:56:45.230Z,96339.81
2019-03-11T15:59:11.664Z,96343.37
2019-03-11T16:01:38.098Z,96336.20
2019-03-11T16:04:04.532Z,96337.84
2019-03-11T16:06:31.068Z,96338.81
2019-03-11T16:08:57.500Z,96342.33
2019-03-11T16:11:23.933Z,96346.18
2019-03-11T16:13:50.572Z,96346.33
2019-03-11T16:16:17.210Z,96356.22
2019-03-11T16:18:43.747Z,96353.34
2019-03-11T16:21:10.285Z,96353.64
2019-03-11T16:23:36.719Z,96357.77
2019-03-11T16:26:03.254Z,96368.13
2019-03-11T16:28:29.688Z,96365.37
2019-03-11T16:30:56.121Z,96367.50
2019-03-11T16:33:22.552Z,96365.73
2019-03-11T16:35:49.297Z,96361.53
2019-03-11T16:38:15.727Z,96366.05
2019-03-11T16:40:42.160Z,96348.88
2019-03-11T16:43:08.697Z,96348.89
2019-03-11T16:45:35.235Z,96359.91
2019-03-11T16:48:01.770Z,96367.84
2019-03-11T16:50:28.308Z,96365.73
2019-03-11T16:52:54.840Z,96367.69
2019-03-11T16:55:36.126Z,96370.92
2019-03-11T16:58:02.558Z,96371.21
2019-03-11T17:00:31.251Z,96382.89
2019-03-11T17:02:57.881Z,96380.64
2019-03-11T17:05:24.578Z,96385.50
2019-03-11T17:07:51.061Z,96383.88
2019-03-11T17:10:19.185Z,96389.71
2019-03-11T17:12:45.662Z,96398.19
2019-03-11T17:15:12.915Z,96412.42
2019-03-11T17:17:39.448Z,96412.77
2019-03-11T17:20:12.137Z,96404.03
2019-03-11T17:22:38.774Z,96406.91
2019-03-11T17:25:08.144Z,96410.30
2019-03-11T17:27:34.607Z,96406.17
2019-03-11T17:30:01.041Z,96403.01
2019-03-11T17:32:27.478Z,96409.05
2019-03-11T17:34:54.009Z,96408.36
2019-03-11T17:37:20.752Z,96409.50
2019-03-11T17:39:50.508Z,96413.38
2019-03-11T17:42:17.308Z,96408.91
2019-03-11T17:44:44.145Z,96414.67
2019-03-11T17:47:10.683Z,96430.16
2019-03-11T17:49:37.115Z,96423.09
2019-03-11T17:52:03.651Z,96428.02
2019-03-11T17:54:30.087Z,96423.16
2019-03-11T17:56:56.623Z,96414.55
2019-03-11T17:59:23.056Z,96415.14
2019-03-11T18:01:49.488Z,96431.21
2019-03-11T18:04:15.922Z,96437.48
2019-03-11T18:06:42.458Z,96444.86
2019-03-11T18:09:08.892Z,96444.94
2019-03-11T18:11:39.710Z,96445.86
2019-03-11T18:14:05.547Z,96449.58
2019-03-11T18:16:32.082Z,96461.09
2019-03-11T18:18:58.516Z,96457.90
2019-03-11T18:21:24.956Z,96455.19
2019-03-11T18:23:51.489Z,96452.62
2019-03-11T18:26:18.025Z,96456.28
2019-03-11T18:28:44.564Z,96469.52
2019-03-11T18:31:11.308Z,96470.80
2019-03-11T18:33:39.600Z,96487.50
2019-03-11T18:36:07.677Z,96481.80
2019-03-11T18:38:34.615Z,96473.94
2019-03-11T18:41:01.134Z,96478.30
2019-03-11T18:43:27.783Z,96469.12
2019-03-11T18:45:54.513Z,96466.45
2019-03-11T18:48:20.973Z,96466.44
2019-03-11T18:50:47.393Z,96474.23
2019-03-11T18:53:13.941Z,96484.73
2019-03-11T18:55:40.503Z,96484.45
2019-03-11T18:58:07.017Z,96486.00
2019-03-11T19:00:33.853Z,96486.60
2019-03-11T19:03:00.375Z,96489.86
2019-03-11T19:05:26.935Z,96494.70
2019-03-11T19:07:55.052Z,96494.20
2019-03-11T19:10:22.168Z,96504.62
2019-03-11T19:12:48.658Z,96508.20
2019-03-11T19:15:17.826Z,96514.78
2019-03-11T19:17:44.728Z,96524.95
2019-03-11T19:20:16.976Z,96517.06
2019-03-11T19:22:43.503Z,96519.56
2019-03-11T19:25:10.950Z,96525.98
2019-03-11T19:27:37.600Z,96531.61
2019-03-11T19:30:07.738Z,96527.89
2019-03-11T19:32:34.155Z,96529.84
2019-03-11T19:35:00.720Z,96527.34
2019-03-11T19:37:27.243Z,96531.34
2019-03-11T19:39:53.985Z,96530.23
2019-03-11T19:42:20.402Z,96529.11
2019-03-11T19:44:47.579Z,96518.87
2019-03-11T19:47:14.300Z,96535.67
2019-03-11T19:49:40.827Z,96537.72
2019-03-11T19:52:07.466Z,96529.38
2019-03-11T19:54:34.106Z,96538.34
2019-03-11T19:57:00.647Z,96537.45
2019-03-11T19:59:27.417Z,96550.52
2019-03-11T20:01:53.916Z,96551.93
2019-03-11T20:04:20.392Z,96545.20
2019-03-11T20:06:47.452Z,96548.78
2019-03-11T20:09:14.487Z,96547.27
2019-03-11T20:11:41.120Z,96547.75
2019-03-11T20:14:07.657Z,96542.63
2019-03-11T20:16:34.420Z,96545.10
2019-03-11T20:19:01.037Z,96545.10
2019-03-11T20:21:27.684Z,96541.67
2019-03-11T20:23:54.177Z,96542.38
2019-03-11T20:26:21.049Z,96552.50
2019-03-11T20:28:48.005Z,96554.96
2019-03-11T20:31:14.600Z,96571.98
2019-03-11T20:33:41.178Z,96568.30
2019-03-11T20:36:20.308Z,96565.70
2019-03-11T20:38:38.662Z,96570.03
2019-03-11T20:41:05.486Z,96574.85
2019-03-11T20:43:32.173Z,96576.48
2019-03-11T20:46:00.613Z,96573.09
2019-03-11T20:48:28.246Z,96578.39
2019-03-11T20:50:54.784Z,96585.51
2019-03-11T20:53:21.346Z,96585.89
2019-03-11T20:55:47.946Z,96585.71
2019-03-11T20:58:14.562Z,96579.73
2019-03-11T21:00:41.799Z,96586.90
2019-03-11T21:03:08.451Z,96589.83
2019-03-11T21:05:44.205Z,96596.72
2019-03-11T21:08:10.941Z,96603.51
2019-03-11T21:10:37.557Z,96588.44
2019-03-11T21:13:04.475Z,96586.05
2019-03-11T21:15:32.853Z,96588.39
2019-03-11T21:17:59.440Z,96590.93
2019-03-11T21:20:26.296Z,96593.36
2019-03-11T21:22:52.993Z,96588.09
2019-03-11T21:25:20.618Z,96577.70
2019-03-11T21:27:47.263Z,96578.80
2019-03-11T21:30:16.563Z,96581.77
2019-03-11T21:32:43.294Z,96571.09
2019-03-11T21:35:10.468Z,96565.59
2019-03-11T21:37:36.993Z,96567.31
2019-03-11T21:40:07.347Z,96574.82
2019-03-11T21:42:37.529Z,96582.39
2019-03-11T21:45:03.843Z,96588.89
2019-03-11T21:47:30.726Z,96593.91
2019-03-11T21:49:57.499Z,96592.63
2019-03-11T21:52:24.094Z,96593.02
2019-03-11T21:54:50.820Z,96592.07
2019-03-11T21:57:17.606Z,96593.08
2019-03-11T21:59:44.179Z,96595.66
2019-03-11T22:02:10.941Z,96601.67
2019-03-11T22:04:37.682Z,96606.97
2019-03-11T22:07:04.215Z,96603.83
2019-03-11T22:09:30.756Z,96611.92
2019-03-11T22:11:57.289Z,96617.33
2019-03-11T22:14:24.028Z,96614.96
2019-03-11T22:16:50.872Z,96609.86
2019-03-11T22:19:17.406Z,96609.87
2019-03-11T22:21:44.248Z,96612.32
2019-03-11T22:24:11.095Z,96621.86
2019-03-11T22:26:37.734Z,96615.41
2019-03-11T22:29:04.419Z,96613.95
2019-03-11T22:31:31.417Z,96616.05
2019-03-11T22:33:58.159Z,96623.42
2019-03-11T22:36:24.703Z,96620.56
2019-03-11T22:38:51.127Z,96615.16
2019-03-11T22:41:17.663Z,96613.39
2019-03-11T22:43:44.403Z,96621.98
2019-03-11T22:46:11.251Z,96611.64
2019-03-11T22:48:37.888Z,96610.82
2019-03-11T22:51:04.389Z,96609.75
2019-03-11T22:53:30.860Z,96615.85
2019-03-11T22:55:57.392Z,96619.86
2019-03-11T22:58:23.888Z,96631.38
2019-03-11T23:01:00.957Z,96626.82
2019-03-11T23:03:27.650Z,96634.02
2019-03-11T23:05:58.048Z,96627.84
2019-03-11T23:08:22.973Z,96625.06
2019-03-11T23:10:49.406Z,96626.28
2019-03-11T23:13:15.840Z,96628.72
2019-03-11T23:15:42.379Z,96630.09
2019-03-11T23:18:08.912Z,96629.89
2019-03-11T23:20:35.449Z,96621.28
2019-03-11T23:23:01.898Z,96627.62
2019-03-11T23:25:28.418Z,96621.69
2019-03-11T23:27:54.958Z,96631.86
2019-03-11T23:30:21.492Z,96632.67
2019-03-11T23:32:49.192Z,96631.16
2019-03-11T23:35:16.001Z,96624.87
2019-03-11T23:37:42.531Z,96626.91
2019-03-11T23:40:09.393Z,96631.38
2019-03-11T23:42:36.012Z,96637.89
2019-03-11T23:45:07.618Z,96638.38
2019-03-11T23:47:34.102Z,96639.32
2019-03-11T23:50:00.668Z,96631.59
2019-03-11T23:52:27.276Z,96639.45
2019-03-11T23:54:54.839Z,96637.20
2019-03-11T23:57:21.374Z,96636.74
2019-03-11T23:59:47.907Z,96635.37
